Baudette, MN

01:10 CDT le 22 septembre 2014 (GMT -0500)
Baudette International | Change Station
CLOSE
Current Station
Aéroport
Location: Baudette,
Altitude: 1083 ft
Stations météo à proximité

Alt. 1083 ft 48.73 °N, 94.61 °W | Updated 17 minutes ago

Ciel dégagé
Ciel dégagé
47 ° F
Paraît 47 ° F
N
5
Vent Variable Vent de SO

Aujourd'hui
Haut(e) -- | Bas -- ° F
--% Risque de précip.
Hier
Haut(e) -- | Bas -- ° F
Precip. -- pouce
7:05 AM 7:17 PM
Lune descendante, 4% visible
Pression 30.16 pouce
Visibilité 10.0 Miles terrestres
Nuages Ciel dégagé
Point de rosée 45 ° F
Humidité 93%
Précipitations 0.00 pouce
Profondeur de la couche neigeuse Non disponible.
UV 0 sur 12
Pollen .90 sur 12
Qualité de l'air Non disponible.
Flu Activity Non disponible.
METAR KBDE 220553Z AUTO 22004KT 10SM CLR 08/07 A3014 RMK AO2 SLP213 T00830072 10139 20078 401720078 58009 TSNO

More Conditions Fewer Conditions

Pression 30.16 pouce
Visibilité 10.0 Miles terrestres
Nuages Ciel dégagé
Point de rosée 45 ° F
Humidité 93%
Précipitations 0.00 pouce
Profondeur de la couche neigeuse Non disponible.
UV 0 sur 12
Pollen .90 sur 12
Qualité de l'air Non disponible.
Flu Activity Non disponible.
METAR KBDE 220553Z AUTO 22004KT 10SM CLR 08/07 A3014 RMK AO2 SLP213 T00830072 10139 20078 401720078 58009 TSNO

More Conditions Fewer Conditions

10-Day Weather Forecast

Almanac

Astronomie

Sep. 22, 2014 Lever Coucher
Temps réel 07:05 CDT 19:17 CDT
Crépuscule civil 06:34 CDT 19:48 CDT
Crépuscule nautique 05:57 CDT 20:25 CDT
Crépuscule astronomique 05:19 CDT 21:03 CDT
Lune 05:30 CDT 18:27 CDT
Durée de lumière visible 13h 13m
Longueur du jour
12h 11m
Tomorrow will be 3m 32s shorter.
Lune descendante, 4% of the Moon is Illuminated
Aujourd'hui
Lune descendante
Sep 24
Nouveau
Oct 1
Premier quartier
Oct 8
Pleine lune
Oct 15
Dernier quartier

Extrêmes aujourd'hui

State Highs State Lows

Community

WunderPhotos

Upload Photos

1,755,392 Photos téléchargées !

Nearby

Épaisseur de neige

Station Depth Altitude
Pas de nouvelles chutes de neige

Activité sismique

Ville Distance Mag. Time & Date
No recent earthquake activity has been reported nearby.
Minimum magnitude displayed is 2.5.

Températures des eaux côtières

Lieu Température
Aucun rapport de station

Stations météo à proximité